sensor_id;sensor_type;location;lat;lon;timestamp;temperature;humidity
8979;DHT22;4524;51.364;5.448;2022-11-20T00:01:04;2.50;99.90
8979;DHT22;4524;51.364;5.448;2022-11-20T00:03:32;2.50;99.90
8979;DHT22;4524;51.364;5.448;2022-11-20T00:06:00;2.50;99.90
8979;DHT22;4524;51.364;5.448;2022-11-20T00:08:28;2.30;99.90
8979;DHT22;4524;51.364;5.448;2022-11-20T00:10:56;2.20;99.90
8979;DHT22;4524;51.364;5.448;2022-11-20T00:13:24;2.20;99.90
8979;DHT22;4524;51.364;5.448;2022-11-20T00:15:58;2.20;99.90
8979;DHT22;4524;51.364;5.448;2022-11-20T00:18:26;2.10;99.90
8979;DHT22;4524;51.364;5.448;2022-11-20T00:21:00;2.00;99.90
8979;DHT22;4524;51.364;5.448;2022-11-20T00:23:28;2.00;99.90
8979;DHT22;4524;51.364;5.448;2022-11-20T00:25:56;1.90;99.90
8979;DHT22;4524;51.364;5.448;2022-11-20T00:28:28;1.90;99.90
8979;DHT22;4524;51.364;5.448;2022-11-20T00:31:02;1.90;99.90
8979;DHT22;4524;51.364;5.448;2022-11-20T00:33:30;1.80;99.90
8979;DHT22;4524;51.364;5.448;2022-11-20T00:36:02;1.70;99.90
8979;DHT22;4524;51.364;5.448;2022-11-20T00:38:31;1.60;99.90
8979;DHT22;4524;51.364;5.448;2022-11-20T00:41:00;1.50;99.90
8979;DHT22;4524;51.364;5.448;2022-11-20T00:43:28;1.40;99.90
8979;DHT22;4524;51.364;5.448;2022-11-20T00:45:57;1.40;99.90
8979;DHT22;4524;51.364;5.448;2022-11-20T00:48:27;1.30;99.90
8979;DHT22;4524;51.364;5.448;2022-11-20T00:50:55;1.20;99.90
8979;DHT22;4524;51.364;5.448;2022-11-20T00:53:23;1.20;99.90
8979;DHT22;4524;51.364;5.448;2022-11-20T00:55:55;1.10;99.90
8979;DHT22;4524;51.364;5.448;2022-11-20T00:58:24;1.00;99.90
8979;DHT22;4524;51.364;5.448;2022-11-20T01:00:52;1.00;99.90
8979;DHT22;4524;51.364;5.448;2022-11-20T01:03:20;1.00;99.90
8979;DHT22;4524;51.364;5.448;2022-11-20T01:05:54;1.10;99.90
8979;DHT22;4524;51.364;5.448;2022-11-20T01:08:22;1.20;99.90
8979;DHT22;4524;51.364;5.448;2022-11-20T01:10:49;1.20;99.90
8979;DHT22;4524;51.364;5.448;2022-11-20T01:13:17;1.20;99.90
8979;DHT22;4524;51.364;5.448;2022-11-20T01:16:04;1.20;99.90
8979;DHT22;4524;51.364;5.448;2022-11-20T01:18:32;1.20;99.90
8979;DHT22;4524;51.364;5.448;2022-11-20T01:21:03;1.10;99.90
8979;DHT22;4524;51.364;5.448;2022-11-20T01:23:32;1.30;99.90
8979;DHT22;4524;51.364;5.448;2022-11-20T01:26:01;1.30;99.90
8979;DHT22;4524;51.364;5.448;2022-11-20T01:28:30;1.10;99.90
8979;DHT22;4524;51.364;5.448;2022-11-20T01:30:58;1.10;99.90
8979;DHT22;4524;51.364;5.448;2022-11-20T01:33:27;1.20;99.90
8979;DHT22;4524;51.364;5.448;2022-11-20T01:36:05;1.30;99.90
8979;DHT22;4524;51.364;5.448;2022-11-20T01:38:33;1.40;99.90
8979;DHT22;4524;51.364;5.448;2022-11-20T01:41:01;1.40;99.90
8979;DHT22;4524;51.364;5.448;2022-11-20T01:43:29;1.30;99.90
8979;DHT22;4524;51.364;5.448;2022-11-20T01:45:59;1.30;99.90
8979;DHT22;4524;51.364;5.448;2022-11-20T01:48:32;1.20;99.90
8979;DHT22;4524;51.364;5.448;2022-11-20T01:51:01;1.30;99.90
8979;DHT22;4524;51.364;5.448;2022-11-20T01:53:34;1.30;99.90
8979;DHT22;4524;51.364;5.448;2022-11-20T01:56:06;1.40;99.90
8979;DHT22;4524;51.364;5.448;2022-11-20T01:58:38;1.50;99.90
8979;DHT22;4524;51.364;5.448;2022-11-20T02:01:08;1.60;99.90
8979;DHT22;4524;51.364;5.448;2022-11-20T02:03:36;1.70;99.90
8979;DHT22;4524;51.364;5.448;2022-11-20T02:06:10;1.80;99.90
8979;DHT22;4524;51.364;5.448;2022-11-20T02:08:41;1.90;99.90
8979;DHT22;4524;51.364;5.448;2022-11-20T02:11:09;2.00;99.90
8979;DHT22;4524;51.364;5.448;2022-11-20T02:13:36;1.90;99.90
8979;DHT22;4524;51.364;5.448;2022-11-20T02:16:19;1.90;99.90
8979;DHT22;4524;51.364;5.448;2022-11-20T02:18:49;2.00;99.90
8979;DHT22;4524;51.364;5.448;2022-11-20T02:21:33;2.00;99.90
8979;DHT22;4524;51.364;5.448;2022-11-20T02:24:12;2.10;99.90
8979;DHT22;4524;51.364;5.448;2022-11-20T02:26:46;2.00;99.90
8979;DHT22;4524;51.364;5.448;2022-11-20T02:29:17;2.00;99.90
8979;DHT22;4524;51.364;5.448;2022-11-20T02:31:47;2.00;99.90
8979;DHT22;4524;51.364;5.448;2022-11-20T02:34:15;2.10;99.90
8979;DHT22;4524;51.364;5.448;2022-11-20T02:36:43;2.00;99.90
8979;DHT22;4524;51.364;5.448;2022-11-20T02:39:13;2.10;99.90
8979;DHT22;4524;51.364;5.448;2022-11-20T02:41:43;2.10;99.90
8979;DHT22;4524;51.364;5.448;2022-11-20T02:44:12;2.20;99.90
8979;DHT22;4524;51.364;5.448;2022-11-20T02:46:40;2.20;99.90
8979;DHT22;4524;51.364;5.448;2022-11-20T02:49:07;2.30;99.90
8979;DHT22;4524;51.364;5.448;2022-11-20T02:51:35;2.40;99.90
8979;DHT22;4524;51.364;5.448;2022-11-20T02:54:03;2.40;99.90
8979;DHT22;4524;51.364;5.448;2022-11-20T02:56:33;2.40;99.90
8979;DHT22;4524;51.364;5.448;2022-11-20T02:59:01;2.30;99.90
8979;DHT22;4524;51.364;5.448;2022-11-20T03:01:28;2.40;99.90
8979;DHT22;4524;51.364;5.448;2022-11-20T03:03:56;2.40;99.90
8979;DHT22;4524;51.364;5.448;2022-11-20T03:06:24;2.40;99.90
8979;DHT22;4524;51.364;5.448;2022-11-20T03:08:52;2.40;99.90
8979;DHT22;4524;51.364;5.448;2022-11-20T03:11:20;2.30;99.90
8979;DHT22;4524;51.364;5.448;2022-11-20T03:13:49;2.30;99.90
8979;DHT22;4524;51.364;5.448;2022-11-20T03:16:19;2.30;99.90
8979;DHT22;4524;51.364;5.448;2022-11-20T03:18:47;2.30;99.90
8979;DHT22;4524;51.364;5.448;2022-11-20T03:21:16;2.20;99.90
8979;DHT22;4524;51.364;5.448;2022-11-20T03:23:44;2.30;99.90
8979;DHT22;4524;51.364;5.448;2022-11-20T03:26:14;2.30;99.90
8979;DHT22;4524;51.364;5.448;2022-11-20T03:28:48;2.30;99.90
8979;DHT22;4524;51.364;5.448;2022-11-20T03:31:20;2.30;99.90
8979;DHT22;4524;51.364;5.448;2022-11-20T03:33:48;2.40;99.90
8979;DHT22;4524;51.364;5.448;2022-11-20T03:36:18;2.40;99.90
8979;DHT22;4524;51.364;5.448;2022-11-20T03:38:46;2.40;99.90
8979;DHT22;4524;51.364;5.448;2022-11-20T03:41:17;2.40;99.90
8979;DHT22;4524;51.364;5.448;2022-11-20T03:43:47;2.50;99.90
8979;DHT22;4524;51.364;5.448;2022-11-20T03:46:17;2.50;99.90
8979;DHT22;4524;51.364;5.448;2022-11-20T03:48:45;2.40;99.90
8979;DHT22;4524;51.364;5.448;2022-11-20T03:51:19;2.50;99.90
8979;DHT22;4524;51.364;5.448;2022-11-20T03:53:49;2.60;99.90
8979;DHT22;4524;51.364;5.448;2022-11-20T03:56:19;2.50;99.90
8979;DHT22;4524;51.364;5.448;2022-11-20T03:58:47;2.50;99.90
8979;DHT22;4524;51.364;5.448;2022-11-20T04:01:18;2.40;99.90
8979;DHT22;4524;51.364;5.448;2022-11-20T04:03:47;2.40;99.90
8979;DHT22;4524;51.364;5.448;2022-11-20T04:06:16;2.50;99.90
8979;DHT22;4524;51.364;5.448;2022-11-20T04:08:45;2.50;99.90
8979;DHT22;4524;51.364;5.448;2022-11-20T04:11:21;2.50;99.90
8979;DHT22;4524;51.364;5.448;2022-11-20T04:13:51;2.50;99.90
8979;DHT22;4524;51.364;5.448;2022-11-20T04:16:21;2.50;99.90
8979;DHT22;4524;51.364;5.448;2022-11-20T04:18:52;2.50;99.90
8979;DHT22;4524;51.364;5.448;2022-11-20T04:21:20;2.50;99.90
8979;DHT22;4524;51.364;5.448;2022-11-20T04:23:48;2.60;99.90
8979;DHT22;4524;51.364;5.448;2022-11-20T04:26:17;2.60;99.90
8979;DHT22;4524;51.364;5.448;2022-11-20T04:28:44;2.60;99.90
8979;DHT22;4524;51.364;5.448;2022-11-20T04:31:14;2.60;99.90
8979;DHT22;4524;51.364;5.448;2022-11-20T04:33:44;2.60;99.90
8979;DHT22;4524;51.364;5.448;2022-11-20T04:36:13;2.60;99.90
8979;DHT22;4524;51.364;5.448;2022-11-20T04:38:43;2.60;99.90
8979;DHT22;4524;51.364;5.448;2022-11-20T04:41:18;2.60;99.90
8979;DHT22;4524;51.364;5.448;2022-11-20T04:43:47;2.70;99.90
8979;DHT22;4524;51.364;5.448;2022-11-20T04:46:16;2.70;99.90
8979;DHT22;4524;51.364;5.448;2022-11-20T04:48:46;2.70;99.90
8979;DHT22;4524;51.364;5.448;2022-11-20T04:51:14;2.80;99.90
8979;DHT22;4524;51.364;5.448;2022-11-20T04:53:42;2.80;99.90
8979;DHT22;4524;51.364;5.448;2022-11-20T04:56:11;2.90;99.90
8979;DHT22;4524;51.364;5.448;2022-11-20T04:58:39;2.80;99.90
8979;DHT22;4524;51.364;5.448;2022-11-20T05:01:10;2.80;99.90
8979;DHT22;4524;51.364;5.448;2022-11-20T05:03:39;2.70;99.90
8979;DHT22;4524;51.364;5.448;2022-11-20T05:06:11;2.80;99.90
8979;DHT22;4524;51.364;5.448;2022-11-20T05:08:39;2.90;99.90
8979;DHT22;4524;51.364;5.448;2022-11-20T05:11:10;2.80;99.90
8979;DHT22;4524;51.364;5.448;2022-11-20T05:13:38;2.90;99.90
8979;DHT22;4524;51.364;5.448;2022-11-20T05:16:08;2.90;99.90
8979;DHT22;4524;51.364;5.448;2022-11-20T05:18:37;3.00;99.90
8979;DHT22;4524;51.364;5.448;2022-11-20T05:21:06;2.90;99.90
8979;DHT22;4524;51.364;5.448;2022-11-20T05:23:36;2.90;99.90
8979;DHT22;4524;51.364;5.448;2022-11-20T05:26:05;2.80;99.90
8979;DHT22;4524;51.364;5.448;2022-11-20T05:28:33;2.90;99.90
8979;DHT22;4524;51.364;5.448;2022-11-20T05:31:06;3.00;99.90
8979;DHT22;4524;51.364;5.448;2022-11-20T05:33:34;2.90;99.90
8979;DHT22;4524;51.364;5.448;2022-11-20T05:36:03;3.00;99.90
8979;DHT22;4524;51.364;5.448;2022-11-20T05:38:31;3.00;99.90
8979;DHT22;4524;51.364;5.448;2022-11-20T05:41:04;3.00;99.90
8979;DHT22;4524;51.364;5.448;2022-11-20T05:43:33;3.00;99.90
8979;DHT22;4524;51.364;5.448;2022-11-20T05:46:01;3.10;99.90
8979;DHT22;4524;51.364;5.448;2022-11-20T05:48:30;3.10;99.90
8979;DHT22;4524;51.364;5.448;2022-11-20T05:50:58;3.10;99.90
8979;DHT22;4524;51.364;5.448;2022-11-20T05:53:26;3.10;99.90
8979;DHT22;4524;51.364;5.448;2022-11-20T05:55:58;3.10;99.90
8979;DHT22;4524;51.364;5.448;2022-11-20T05:58:28;3.20;99.90
8979;DHT22;4524;51.364;5.448;2022-11-20T06:01:04;3.20;99.90
8979;DHT22;4524;51.364;5.448;2022-11-20T06:03:33;3.20;99.90
8979;DHT22;4524;51.364;5.448;2022-11-20T06:06:01;3.20;99.90
8979;DHT22;4524;51.364;5.448;2022-11-20T06:08:29;3.20;99.90
8979;DHT22;4524;51.364;5.448;2022-11-20T06:10:57;3.30;99.90
8979;DHT22;4524;51.364;5.448;2022-11-20T06:13:25;3.30;99.90
8979;DHT22;4524;51.364;5.448;2022-11-20T06:15:55;3.30;99.90
8979;DHT22;4524;51.364;5.448;2022-11-20T06:18:22;3.30;99.90
8979;DHT22;4524;51.364;5.448;2022-11-20T06:20:59;3.30;99.90
8979;DHT22;4524;51.364;5.448;2022-11-20T06:23:28;3.30;99.90
8979;DHT22;4524;51.364;5.448;2022-11-20T06:25:56;3.40;99.90
8979;DHT22;4524;51.364;5.448;2022-11-20T06:28:24;3.30;99.90
8979;DHT22;4524;51.364;5.448;2022-11-20T06:30:52;3.40;99.90
8979;DHT22;4524;51.364;5.448;2022-11-20T06:33:21;3.40;99.90
8979;DHT22;4524;51.364;5.448;2022-11-20T06:35:49;3.50;99.90
8979;DHT22;4524;51.364;5.448;2022-11-20T06:38:25;3.40;99.90
8979;DHT22;4524;51.364;5.448;2022-11-20T06:40:53;3.50;99.90
8979;DHT22;4524;51.364;5.448;2022-11-20T06:43:21;3.50;99.90
8979;DHT22;4524;51.364;5.448;2022-11-20T06:45:52;3.40;99.90
8979;DHT22;4524;51.364;5.448;2022-11-20T06:48:22;3.40;99.90
8979;DHT22;4524;51.364;5.448;2022-11-20T06:50:51;3.40;99.90
8979;DHT22;4524;51.364;5.448;2022-11-20T06:53:19;3.40;99.90
8979;DHT22;4524;51.364;5.448;2022-11-20T06:55:47;3.40;99.90
8979;DHT22;4524;51.364;5.448;2022-11-20T06:58:15;3.40;99.90
8979;DHT22;4524;51.364;5.448;2022-11-20T07:00:44;3.50;99.90
8979;DHT22;4524;51.364;5.448;2022-11-20T07:03:12;3.50;99.90
8979;DHT22;4524;51.364;5.448;2022-11-20T07:05:41;3.50;99.90
8979;DHT22;4524;51.364;5.448;2022-11-20T07:08:09;3.50;99.90
8979;DHT22;4524;51.364;5.448;2022-11-20T07:10:37;3.50;99.90
8979;DHT22;4524;51.364;5.448;2022-11-20T07:13:05;3.50;99.90
8979;DHT22;4524;51.364;5.448;2022-11-20T07:15:33;3.40;99.90
8979;DHT22;4524;51.364;5.448;2022-11-20T07:18:01;3.40;99.90
8979;DHT22;4524;51.364;5.448;2022-11-20T07:20:29;3.30;99.90
8979;DHT22;4524;51.364;5.448;2022-11-20T07:22:59;3.20;99.90
8979;DHT22;4524;51.364;5.448;2022-11-20T07:25:27;3.10;99.90
8979;DHT22;4524;51.364;5.448;2022-11-20T07:27:57;3.00;99.90
8979;DHT22;4524;51.364;5.448;2022-11-20T07:30:25;3.00;99.90
8979;DHT22;4524;51.364;5.448;2022-11-20T07:32:54;3.00;99.90
8979;DHT22;4524;51.364;5.448;2022-11-20T07:35:23;3.00;99.90
8979;DHT22;4524;51.364;5.448;2022-11-20T07:37:51;3.10;99.90
8979;DHT22;4524;51.364;5.448;2022-11-20T07:40:20;3.00;99.90
8979;DHT22;4524;51.364;5.448;2022-11-20T07:42:49;2.90;99.90
8979;DHT22;4524;51.364;5.448;2022-11-20T07:45:17;2.80;99.90
8979;DHT22;4524;51.364;5.448;2022-11-20T07:47:45;2.80;99.90
8979;DHT22;4524;51.364;5.448;2022-11-20T07:50:13;2.80;99.90
8979;DHT22;4524;51.364;5.448;2022-11-20T07:52:42;2.80;99.90
8979;DHT22;4524;51.364;5.448;2022-11-20T07:55:10;2.90;99.90
8979;DHT22;4524;51.364;5.448;2022-11-20T07:57:40;3.10;99.90
8979;DHT22;4524;51.364;5.448;2022-11-20T08:00:10;3.20;99.90
8979;DHT22;4524;51.364;5.448;2022-11-20T08:02:38;3.30;99.90
8979;DHT22;4524;51.364;5.448;2022-11-20T08:05:07;3.50;99.90
8979;DHT22;4524;51.364;5.448;2022-11-20T08:07:36;3.50;99.90
8979;DHT22;4524;51.364;5.448;2022-11-20T08:10:06;3.50;99.90
8979;DHT22;4524;51.364;5.448;2022-11-20T08:12:34;3.60;99.90
8979;DHT22;4524;51.364;5.448;2022-11-20T08:15:21;3.70;99.90
8979;DHT22;4524;51.364;5.448;2022-11-20T08:17:48;3.80;99.90
8979;DHT22;4524;51.364;5.448;2022-11-20T08:20:36;3.80;99.90
8979;DHT22;4524;51.364;5.448;2022-11-20T08:23:05;3.80;99.90
8979;DHT22;4524;51.364;5.448;2022-11-20T08:25:35;3.90;99.90
8979;DHT22;4524;51.364;5.448;2022-11-20T08:28:04;3.90;99.90
8979;DHT22;4524;51.364;5.448;2022-11-20T08:30:47;4.00;99.90
8979;DHT22;4524;51.364;5.448;2022-11-20T08:33:15;3.90;99.90
8979;DHT22;4524;51.364;5.448;2022-11-20T08:35:43;3.90;99.90
8979;DHT22;4524;51.364;5.448;2022-11-20T08:38:11;4.00;99.90
8979;DHT22;4524;51.364;5.448;2022-11-20T08:40:39;4.00;99.90
8979;DHT22;4524;51.364;5.448;2022-11-20T08:43:07;4.00;99.90
8979;DHT22;4524;51.364;5.448;2022-11-20T08:45:35;4.00;99.90
8979;DHT22;4524;51.364;5.448;2022-11-20T08:48:05;4.00;99.90
8979;DHT22;4524;51.364;5.448;2022-11-20T08:50:33;4.10;99.90
8979;DHT22;4524;51.364;5.448;2022-11-20T08:53:04;4.20;99.90
8979;DHT22;4524;51.364;5.448;2022-11-20T08:55:32;4.20;99.90
8979;DHT22;4524;51.364;5.448;2022-11-20T08:58:03;4.30;99.90
8979;DHT22;4524;51.364;5.448;2022-11-20T09:00:32;4.30;99.90
8979;DHT22;4524;51.364;5.448;2022-11-20T09:03:00;4.40;99.90
8979;DHT22;4524;51.364;5.448;2022-11-20T09:05:29;4.50;99.90
8979;DHT22;4524;51.364;5.448;2022-11-20T09:07:57;4.50;99.90
8979;DHT22;4524;51.364;5.448;2022-11-20T09:10:25;4.50;99.90
8979;DHT22;4524;51.364;5.448;2022-11-20T09:12:54;4.60;99.90
8979;DHT22;4524;51.364;5.448;2022-11-20T09:15:23;4.60;99.90
8979;DHT22;4524;51.364;5.448;2022-11-20T09:17:51;4.60;99.90
8979;DHT22;4524;51.364;5.448;2022-11-20T09:20:19;4.60;99.90
8979;DHT22;4524;51.364;5.448;2022-11-20T09:22:49;4.60;99.90
8979;DHT22;4524;51.364;5.448;2022-11-20T09:25:17;4.70;99.90
8979;DHT22;4524;51.364;5.448;2022-11-20T09:27:45;4.70;99.90
8979;DHT22;4524;51.364;5.448;2022-11-20T09:30:14;4.80;99.90
8979;DHT22;4524;51.364;5.448;2022-11-20T09:32:43;4.80;99.90
8979;DHT22;4524;51.364;5.448;2022-11-20T09:35:11;4.90;99.90
8979;DHT22;4524;51.364;5.448;2022-11-20T09:37:39;4.90;99.90
8979;DHT22;4524;51.364;5.448;2022-11-20T09:40:18;5.00;99.90
8979;DHT22;4524;51.364;5.448;2022-11-20T09:42:54;5.00;99.90
8979;DHT22;4524;51.364;5.448;2022-11-20T09:45:29;4.90;99.90
8979;DHT22;4524;51.364;5.448;2022-11-20T09:48:14;5.00;99.90
8979;DHT22;4524;51.364;5.448;2022-11-20T09:50:49;5.00;99.90
8979;DHT22;4524;51.364;5.448;2022-11-20T09:53:30;5.20;99.90
8979;DHT22;4524;51.364;5.448;2022-11-20T09:56:03;5.20;99.90
8979;DHT22;4524;51.364;5.448;2022-11-20T09:58:35;5.10;99.90
8979;DHT22;4524;51.364;5.448;2022-11-20T10:01:10;5.20;99.90
8979;DHT22;4524;51.364;5.448;2022-11-20T10:03:48;5.20;99.90
8979;DHT22;4524;51.364;5.448;2022-11-20T10:06:20;5.30;99.90
8979;DHT22;4524;51.364;5.448;2022-11-20T10:08:55;5.40;99.90
8979;DHT22;4524;51.364;5.448;2022-11-20T10:11:32;5.50;99.90
8979;DHT22;4524;51.364;5.448;2022-11-20T10:14:11;5.60;99.90
8979;DHT22;4524;51.364;5.448;2022-11-20T10:16:46;5.80;99.90
8979;DHT22;4524;51.364;5.448;2022-11-20T10:19:28;5.80;99.90
8979;DHT22;4524;51.364;5.448;2022-11-20T10:22:08;5.80;99.90
8979;DHT22;4524;51.364;5.448;2022-11-20T10:24:48;5.70;99.90
8979;DHT22;4524;51.364;5.448;2022-11-20T10:27:47;5.80;99.90
8979;DHT22;4524;51.364;5.448;2022-11-20T10:30:20;5.80;99.90
8979;DHT22;4524;51.364;5.448;2022-11-20T10:32:54;5.90;99.90
8979;DHT22;4524;51.364;5.448;2022-11-20T10:35:25;5.90;99.90
8979;DHT22;4524;51.364;5.448;2022-11-20T10:37:57;6.00;99.90
8979;DHT22;4524;51.364;5.448;2022-11-20T10:40:31;6.00;99.90
8979;DHT22;4524;51.364;5.448;2022-11-20T10:43:02;6.00;99.90
8979;DHT22;4524;51.364;5.448;2022-11-20T10:45:38;5.90;99.90
8979;DHT22;4524;51.364;5.448;2022-11-20T10:48:15;6.00;99.90
8979;DHT22;4524;51.364;5.448;2022-11-20T10:50:59;6.00;99.90
8979;DHT22;4524;51.364;5.448;2022-11-20T10:53:40;6.00;99.90
8979;DHT22;4524;51.364;5.448;2022-11-20T10:56:17;6.10;99.90
8979;DHT22;4524;51.364;5.448;2022-11-20T10:58:57;6.10;99.90
8979;DHT22;4524;51.364;5.448;2022-11-20T11:01:28;6.00;99.90
8979;DHT22;4524;51.364;5.448;2022-11-20T11:03:57;6.20;99.90
8979;DHT22;4524;51.364;5.448;2022-11-20T11:06:31;6.20;99.90
8979;DHT22;4524;51.364;5.448;2022-11-20T11:09:08;6.10;99.90
8979;DHT22;4524;51.364;5.448;2022-11-20T11:11:38;6.10;99.90
8979;DHT22;4524;51.364;5.448;2022-11-20T11:14:11;6.10;99.90
8979;DHT22;4524;51.364;5.448;2022-11-20T11:16:49;6.10;99.90
8979;DHT22;4524;51.364;5.448;2022-11-20T11:19:18;6.00;99.90
8979;DHT22;4524;51.364;5.448;2022-11-20T11:21:47;6.00;99.90
8979;DHT22;4524;51.364;5.448;2022-11-20T11:24:22;6.00;99.90
8979;DHT22;4524;51.364;5.448;2022-11-20T11:27:13;6.00;99.90
8979;DHT22;4524;51.364;5.448;2022-11-20T11:29:45;6.00;99.90
8979;DHT22;4524;51.364;5.448;2022-11-20T11:32:15;6.10;99.90
8979;DHT22;4524;51.364;5.448;2022-11-20T11:34:43;6.10;99.90
8979;DHT22;4524;51.364;5.448;2022-11-20T11:37:17;6.20;99.90
8979;DHT22;4524;51.364;5.448;2022-11-20T11:39:46;6.30;99.90
8979;DHT22;4524;51.364;5.448;2022-11-20T11:42:30;6.30;99.90
8979;DHT22;4524;51.364;5.448;2022-11-20T11:45:00;6.20;99.90
8979;DHT22;4524;51.364;5.448;2022-11-20T11:47:36;6.20;99.90
8979;DHT22;4524;51.364;5.448;2022-11-20T11:50:18;6.20;99.90
8979;DHT22;4524;51.364;5.448;2022-11-20T11:52:51;6.20;99.90
8979;DHT22;4524;51.364;5.448;2022-11-20T11:55:29;6.30;99.90
8979;DHT22;4524;51.364;5.448;2022-11-20T11:58:08;6.30;99.90
8979;DHT22;4524;51.364;5.448;2022-11-20T12:00:41;6.30;99.90
8979;DHT22;4524;51.364;5.448;2022-11-20T12:03:15;6.30;99.90
8979;DHT22;4524;51.364;5.448;2022-11-20T12:05:46;6.40;99.90
8979;DHT22;4524;51.364;5.448;2022-11-20T12:08:18;6.40;99.90
8979;DHT22;4524;51.364;5.448;2022-11-20T12:10:53;6.40;99.90
8979;DHT22;4524;51.364;5.448;2022-11-20T12:13:40;6.40;99.90
8979;DHT22;4524;51.364;5.448;2022-11-20T12:16:13;6.50;99.90
8979;DHT22;4524;51.364;5.448;2022-11-20T12:18:42;6.50;99.90
8979;DHT22;4524;51.364;5.448;2022-11-20T12:21:18;6.50;99.90
8979;DHT22;4524;51.364;5.448;2022-11-20T12:24:06;6.50;99.90
8979;DHT22;4524;51.364;5.448;2022-11-20T12:26:54;6.70;99.90
8979;DHT22;4524;51.364;5.448;2022-11-20T12:29:37;6.70;99.90
8979;DHT22;4524;51.364;5.448;2022-11-20T12:35:28;6.80;99.90
8979;DHT22;4524;51.364;5.448;2022-11-20T12:38:18;6.80;99.90
8979;DHT22;4524;51.364;5.448;2022-11-20T12:41:00;6.90;99.90
8979;DHT22;4524;51.364;5.448;2022-11-20T12:43:34;6.90;99.90
8979;DHT22;4524;51.364;5.448;2022-11-20T12:46:27;6.90;99.90
8979;DHT22;4524;51.364;5.448;2022-11-20T12:49:08;7.00;99.90
8979;DHT22;4524;51.364;5.448;2022-11-20T12:51:48;7.00;99.90
8979;DHT22;4524;51.364;5.448;2022-11-20T12:54:42;7.00;99.90
8979;DHT22;4524;51.364;5.448;2022-11-20T12:57:18;7.00;99.90
8979;DHT22;4524;51.364;5.448;2022-11-20T13:00:07;7.10;99.90
8979;DHT22;4524;51.364;5.448;2022-11-20T13:02:58;7.10;99.90
8979;DHT22;4524;51.364;5.448;2022-11-20T13:05:33;7.20;99.90
8979;DHT22;4524;51.364;5.448;2022-11-20T13:08:11;7.20;99.90
8979;DHT22;4524;51.364;5.448;2022-11-20T13:10:45;7.20;99.90
8979;DHT22;4524;51.364;5.448;2022-11-20T13:13:22;7.20;99.90
8979;DHT22;4524;51.364;5.448;2022-11-20T13:15:55;7.10;99.90
8979;DHT22;4524;51.364;5.448;2022-11-20T13:18:23;7.20;99.90
8979;DHT22;4524;51.364;5.448;2022-11-20T13:20:53;7.10;99.90
8979;DHT22;4524;51.364;5.448;2022-11-20T13:23:24;7.20;99.90
8979;DHT22;4524;51.364;5.448;2022-11-20T13:26:04;7.30;99.90
8979;DHT22;4524;51.364;5.448;2022-11-20T13:28:33;7.30;99.90
8979;DHT22;4524;51.364;5.448;2022-11-20T13:31:00;7.30;99.90
8979;DHT22;4524;51.364;5.448;2022-11-20T13:33:30;7.20;99.90
8979;DHT22;4524;51.364;5.448;2022-11-20T13:36:01;7.20;1.00
8979;DHT22;4524;51.364;5.448;2022-11-20T13:38:41;7.30;1.00
8979;DHT22;4524;51.364;5.448;2022-11-20T13:41:10;7.30;1.00
8979;DHT22;4524;51.364;5.448;2022-11-20T13:44:12;7.30;1.00
8979;DHT22;4524;51.364;5.448;2022-11-20T13:46:42;7.30;1.00
8979;DHT22;4524;51.364;5.448;2022-11-20T13:49:18;7.30;1.00
8979;DHT22;4524;51.364;5.448;2022-11-20T13:51:51;7.30;1.00
8979;DHT22;4524;51.364;5.448;2022-11-20T13:54:48;7.30;1.00
8979;DHT22;4524;51.364;5.448;2022-11-20T13:57:34;7.30;1.00
8979;DHT22;4524;51.364;5.448;2022-11-20T14:00:19;7.30;1.00
8979;DHT22;4524;51.364;5.448;2022-11-20T14:02:59;7.40;1.00
8979;DHT22;4524;51.364;5.448;2022-11-20T14:05:27;7.40;1.00
8979;DHT22;4524;51.364;5.448;2022-11-20T14:07:58;7.40;1.00
8979;DHT22;4524;51.364;5.448;2022-11-20T14:10:28;7.40;1.00
8979;DHT22;4524;51.364;5.448;2022-11-20T14:12:58;7.40;1.00
8979;DHT22;4524;51.364;5.448;2022-11-20T14:15:28;7.40;1.00
8979;DHT22;4524;51.364;5.448;2022-11-20T14:17:57;7.40;1.00
8979;DHT22;4524;51.364;5.448;2022-11-20T14:20:27;7.40;1.00
8979;DHT22;4524;51.364;5.448;2022-11-20T14:22:57;7.30;1.00
8979;DHT22;4524;51.364;5.448;2022-11-20T14:25:26;7.30;14.80
8979;DHT22;4524;51.364;5.448;2022-11-20T14:27:55;7.30;36.60
8979;DHT22;4524;51.364;5.448;2022-11-20T14:30:25;7.30;89.90
8979;DHT22;4524;51.364;5.448;2022-11-20T14:32:56;7.30;99.90
8979;DHT22;4524;51.364;5.448;2022-11-20T14:35:26;7.30;99.90
8979;DHT22;4524;51.364;5.448;2022-11-20T14:37:55;7.30;99.90
8979;DHT22;4524;51.364;5.448;2022-11-20T14:40:27;7.30;99.90
8979;DHT22;4524;51.364;5.448;2022-11-20T14:42:56;7.40;99.90
8979;DHT22;4524;51.364;5.448;2022-11-20T14:45:25;7.40;99.90
8979;DHT22;4524;51.364;5.448;2022-11-20T14:47:55;7.30;99.90
8979;DHT22;4524;51.364;5.448;2022-11-20T14:50:25;7.30;99.90
8979;DHT22;4524;51.364;5.448;2022-11-20T14:52:54;7.30;99.90
8979;DHT22;4524;51.364;5.448;2022-11-20T14:55:29;7.30;99.90
8979;DHT22;4524;51.364;5.448;2022-11-20T14:58:00;7.30;99.90
8979;DHT22;4524;51.364;5.448;2022-11-20T15:00:29;7.20;99.90
8979;DHT22;4524;51.364;5.448;2022-11-20T15:02:57;7.30;99.90
8979;DHT22;4524;51.364;5.448;2022-11-20T15:08:15;7.30;99.90
8979;DHT22;4524;51.364;5.448;2022-11-20T15:10:47;7.40;99.90
8979;DHT22;4524;51.364;5.448;2022-11-20T15:13:19;7.30;99.90
8979;DHT22;4524;51.364;5.448;2022-11-20T15:15:50;7.30;99.90
8979;DHT22;4524;51.364;5.448;2022-11-20T15:18:21;7.40;99.90
8979;DHT22;4524;51.364;5.448;2022-11-20T15:20:50;7.40;99.90
8979;DHT22;4524;51.364;5.448;2022-11-20T15:23:19;7.30;99.90
8979;DHT22;4524;51.364;5.448;2022-11-20T15:25:49;7.30;99.90
8979;DHT22;4524;51.364;5.448;2022-11-20T15:28:19;7.40;99.90
8979;DHT22;4524;51.364;5.448;2022-11-20T15:30:48;7.40;99.90
8979;DHT22;4524;51.364;5.448;2022-11-20T15:33:17;7.40;99.90
8979;DHT22;4524;51.364;5.448;2022-11-20T15:35:45;7.40;99.90
8979;DHT22;4524;51.364;5.448;2022-11-20T15:38:13;7.40;99.90
8979;DHT22;4524;51.364;5.448;2022-11-20T15:40:41;7.40;99.90
8979;DHT22;4524;51.364;5.448;2022-11-20T15:43:10;7.40;99.90
8979;DHT22;4524;51.364;5.448;2022-11-20T15:45:41;7.50;99.90
8979;DHT22;4524;51.364;5.448;2022-11-20T15:48:12;7.50;99.90
8979;DHT22;4524;51.364;5.448;2022-11-20T15:50:49;7.50;99.90
8979;DHT22;4524;51.364;5.448;2022-11-20T15:53:18;7.50;99.90
8979;DHT22;4524;51.364;5.448;2022-11-20T15:55:46;7.50;99.90
8979;DHT22;4524;51.364;5.448;2022-11-20T15:58:15;7.50;99.90
8979;DHT22;4524;51.364;5.448;2022-11-20T16:00:44;7.50;99.90
8979;DHT22;4524;51.364;5.448;2022-11-20T16:03:13;7.50;99.90
8979;DHT22;4524;51.364;5.448;2022-11-20T16:05:41;7.60;99.90
8979;DHT22;4524;51.364;5.448;2022-11-20T16:08:09;7.60;99.90
8979;DHT22;4524;51.364;5.448;2022-11-20T16:10:38;7.60;99.90
8979;DHT22;4524;51.364;5.448;2022-11-20T16:13:11;7.60;99.90
8979;DHT22;4524;51.364;5.448;2022-11-20T16:15:59;7.70;99.90
8979;DHT22;4524;51.364;5.448;2022-11-20T16:18:28;7.70;99.90
8979;DHT22;4524;51.364;5.448;2022-11-20T16:20:57;7.70;99.90
8979;DHT22;4524;51.364;5.448;2022-11-20T16:23:24;7.70;99.90
8979;DHT22;4524;51.364;5.448;2022-11-20T16:25:52;7.70;99.90
8979;DHT22;4524;51.364;5.448;2022-11-20T16:28:20;7.70;99.90
8979;DHT22;4524;51.364;5.448;2022-11-20T16:30:48;7.80;99.90
8979;DHT22;4524;51.364;5.448;2022-11-20T16:33:18;7.80;99.90
8979;DHT22;4524;51.364;5.448;2022-11-20T16:35:46;7.80;99.90
8979;DHT22;4524;51.364;5.448;2022-11-20T16:38:13;7.80;99.90
8979;DHT22;4524;51.364;5.448;2022-11-20T16:40:41;7.90;99.90
8979;DHT22;4524;51.364;5.448;2022-11-20T16:43:12;7.90;99.90
8979;DHT22;4524;51.364;5.448;2022-11-20T16:45:42;7.90;99.90
8979;DHT22;4524;51.364;5.448;2022-11-20T16:48:14;7.90;99.90
8979;DHT22;4524;51.364;5.448;2022-11-20T16:50:48;7.90;99.90
8979;DHT22;4524;51.364;5.448;2022-11-20T16:53:17;7.90;99.90